Time;durP1;ratioP1;P1;durP2;ratioP2;P2;SDS_P1;SDS_P2;PMS_P1;PMS_P2;Temp;Humidity;BMP_temperature;BMP_pressure;BME280_temperature;BME280_humidity;BME280_pressure;Samples;Min_cycle;Max_cycle;Signal;HPM_P1;HPM_P2
2021/03/10 00:01:56;;;;;;;;;;;;;;;9.75;48.75;100669.47;4958850;28;19915;-81
2021/03/10 00:04:41;;;;;;;;;;;;;;;9.42;49.57;100677.88;4955127;28;19914;-81
2021/03/10 00:07:26;;;;;;;;;;;;;;;9.39;49.93;100669.56;4961264;28;20385;-80
2021/03/10 00:10:11;;;;;;;;;;;;;;;9.49;49.33;100679.38;4958201;28;20413;-80
2021/03/10 00:12:55;;;;;;;;;;;;;;;9.72;49.34;100683.66;4957234;28;19922;-81
2021/03/10 00:15:40;;;;;;;;;;;;;;;9.74;48.79;100690.41;4961329;28;19914;-81
2021/03/10 00:18:25;;;;;;;;;;;;;;;9.86;48.89;100692.53;4958171;28;19936;-81
2021/03/10 00:21:10;;;;;;;;;;;;;;;9.91;48.27;100697.84;4957355;29;19922;-81
2021/03/10 00:23:54;;;;;;;;;;;;;;;9.91;48.35;100697.03;4960956;29;19914;-81
2021/03/10 00:26:39;;;;;;;;;;;;;;;10.10;48.18;100703.88;4959449;29;19914;-81
2021/03/10 00:29:24;;;;;;;;;;;;;;;10.02;47.71;100712.75;4957751;28;19918;-81
2021/03/10 00:32:09;;;;;;;;;;;;;;;10.20;48.50;100722.66;4954888;29;19918;-81
2021/03/10 00:34:55;;;;;;;;;;;;;;;9.79;49.39;100716.63;4943714;29;19919;-81
2021/03/10 00:37:39;;;;;;;;;;;;;;;9.69;50.23;100720.41;4959003;29;19914;-80
2021/03/10 00:40:24;;;;;;;;;;;;;;;9.96;49.78;100722.16;4958061;29;19914;-82
2021/03/10 00:43:09;;;;;;;;;;;;;;;10.01;49.11;100722.00;4955916;29;19915;-82
2021/03/10 00:45:54;;;;;;;;;;;;;;;10.25;49.15;100725.25;4958378;29;20301;-81
2021/03/10 00:48:40;;;;;;;;;;;;;;;10.37;49.08;100718.38;4955884;29;20389;-81
2021/03/10 00:51:25;;;;;;;;;;;;;;;10.47;49.33;100712.66;4955948;29;20309;-82
2021/03/10 00:54:10;;;;;;;;;;;;;;;9.76;50.90;100714.50;4957659;29;19914;-81
2021/03/10 00:56:55;;;;;;;;;;;;;;;9.24;51.99;100706.00;4957142;29;19922;-81
2021/03/10 00:59:39;;;;;;;;;;;;;;;8.97;52.10;100703.34;4960937;28;20596;-81
2021/03/10 01:02:23;;;;;;;;;;;;;;;9.34;51.67;100721.25;4943401;29;19915;-81
2021/03/10 01:05:08;;;;;;;;;;;;;;;9.58;50.73;100729.09;4954702;29;20377;-80
2021/03/10 01:07:53;;;;;;;;;;;;;;;9.72;51.22;100724.41;4957431;29;19919;-80
2021/03/10 01:10:39;;;;;;;;;;;;;;;9.71;50.76;100728.22;4954998;28;19918;-80
2021/03/10 01:13:24;;;;;;;;;;;;;;;9.71;50.37;100722.78;4955220;29;19915;-80
2021/03/10 01:16:08;;;;;;;;;;;;;;;9.55;50.63;100729.72;4957781;28;19915;-80
2021/03/10 01:18:55;;;;;;;;;;;;;;;9.59;50.82;100736.13;4960447;28;19914;-81
2021/03/10 01:21:41;;;;;;;;;;;;;;;9.52;51.07;100733.84;4957367;28;19914;-81
2021/03/10 01:24:25;;;;;;;;;;;;;;;9.81;51.17;100738.81;4954014;28;20527;-81
2021/03/10 01:27:10;;;;;;;;;;;;;;;9.71;51.67;100733.66;4959893;28;20301;-80
2021/03/10 01:29:55;;;;;;;;;;;;;;;9.72;51.56;100730.63;4958989;28;20305;-81
2021/03/10 01:32:39;;;;;;;;;;;;;;;9.66;51.50;100729.16;4963564;28;19915;-80
2021/03/10 01:35:24;;;;;;;;;;;;;;;9.76;51.99;100728.91;4962176;28;19915;-82
2021/03/10 01:38:09;;;;;;;;;;;;;;;9.70;51.63;100721.97;4960871;28;19915;-81
2021/03/10 01:40:54;;;;;;;;;;;;;;;9.60;51.07;100714.09;4959842;28;19914;-81
2021/03/10 01:43:39;;;;;;;;;;;;;;;9.67;51.33;100721.81;4961541;28;19914;-80
2021/03/10 01:46:32;;;;;;;;;;;;;;;9.68;51.12;100713.34;4959089;28;19922;-81
2021/03/10 01:49:17;;;;;;;;;;;;;;;9.71;50.54;100711.91;4962684;28;19918;-80
2021/03/10 01:52:02;;;;;;;;;;;;;;;9.56;51.70;100715.00;4965373;28;19914;-81
2021/03/10 01:54:47;;;;;;;;;;;;;;;9.60;51.18;100716.03;4965562;28;19914;-82
2021/03/10 01:57:31;;;;;;;;;;;;;;;9.48;51.44;100707.63;4962083;28;20651;-81
2021/03/10 02:00:17;;;;;;;;;;;;;;;9.73;51.97;100721.38;4962111;28;19918;-82
2021/03/10 02:03:02;;;;;;;;;;;;;;;9.66;51.16;100722.91;4945843;29;19914;-82
2021/03/10 02:05:47;;;;;;;;;;;;;;;9.34;52.52;100721.25;4958432;28;20309;-80
2021/03/10 02:08:51;;;;;;;;;;;;;;;9.27;52.98;100727.09;4959152;28;19918;-81
2021/03/10 02:11:48;;;;;;;;;;;;;;;9.41;53.34;100722.41;4957113;28;19944;-80
2021/03/10 02:14:36;;;;;;;;;;;;;;;9.11;53.37;100728.53;4962365;28;19918;-81
2021/03/10 02:17:24;;;;;;;;;;;;;;;9.01;53.60;100726.03;4960271;28;19914;-81
2021/03/10 02:20:25;;;;;;;;;;;;;;;9.07;53.68;100727.53;4955987;28;19914;-80
2021/03/10 02:23:28;;;;;;;;;;;;;;;8.93;53.89;100716.72;4961778;28;19915;-81
2021/03/10 02:26:19;;;;;;;;;;;;;;;8.93;54.08;100719.44;4956521;28;19918;-81
2021/03/10 02:29:07;;;;;;;;;;;;;;;8.91;53.54;100721.63;4960739;28;19919;-81
2021/03/10 02:31:53;;;;;;;;;;;;;;;8.82;53.53;100722.66;4960891;28;20456;-81
2021/03/10 02:34:39;;;;;;;;;;;;;;;9.06;53.79;100731.34;4955105;28;19914;-80
2021/03/10 02:37:23;;;;;;;;;;;;;;;9.06;53.17;100727.84;4963210;28;19918;-81
2021/03/10 02:40:10;;;;;;;;;;;;;;;8.68;53.91;100725.38;4958131;28;19914;-81
2021/03/10 02:42:56;;;;;;;;;;;;;;;8.52;54.66;100721.38;4959983;28;19914;-81
2021/03/10 02:45:43;;;;;;;;;;;;;;;8.56;54.26;100725.06;4960390;28;19914;-81
2021/03/10 02:48:29;;;;;;;;;;;;;;;8.37;55.22;100729.78;4960100;28;19915;-80
2021/03/10 02:51:15;;;;;;;;;;;;;;;8.51;54.36;100730.59;4959713;28;19922;-81
2021/03/10 02:54:01;;;;;;;;;;;;;;;8.52;54.16;100735.72;4963149;28;19914;-81
2021/03/10 02:56:46;;;;;;;;;;;;;;;8.40;54.33;100738.13;4958445;28;19915;-80
2021/03/10 02:59:32;;;;;;;;;;;;;;;8.15;55.25;100735.84;4957793;28;20409;-81
2021/03/10 03:01:58;;;;;;;;;;;;;;;8.24;54.79;100734.03;4980380;23;19929;-84
2021/03/10 03:04:44;;;;;;;;;;;;;;;8.27;55.12;100733.47;4963809;28;19918;-85
2021/03/10 03:07:28;;;;;;;;;;;;;;;8.29;55.44;100736.66;4974404;28;19913;-85
2021/03/10 03:10:24;;;;;;;;;;;;;;;8.08;55.25;100740.84;4979071;28;19918;-85
2021/03/10 03:13:10;;;;;;;;;;;;;;;7.15;58.87;100739.06;4981234;28;19913;-85
2021/03/10 03:15:59;;;;;;;;;;;;;;;7.42;58.53;100738.38;4980478;28;19917;-85
2021/03/10 03:18:44;;;;;;;;;;;;;;;7.77;56.31;100745.19;4973968;28;19914;-86
2021/03/10 03:21:29;;;;;;;;;;;;;;;7.69;56.54;100744.75;4965390;28;19914;-87
2021/03/10 03:24:16;;;;;;;;;;;;;;;7.27;58.26;100745.63;4964424;28;19914;-87
2021/03/10 03:27:02;;;;;;;;;;;;;;;7.69;56.63;100744.75;4976170;28;20284;-84
2021/03/10 03:29:47;;;;;;;;;;;;;;;7.91;56.16;100752.25;4980438;28;19922;-85
2021/03/10 03:32:36;;;;;;;;;;;;;;;6.98;58.80;100752.28;4958161;28;19914;-87
2021/03/10 03:35:22;;;;;;;;;;;;;;;7.32;58.60;100759.09;4980352;28;19914;-88
2021/03/10 03:38:06;;;;;;;;;;;;;;;7.44;56.54;100749.75;4965576;28;19914;-86
2021/03/10 03:44:20;;;;;;;;;;;;;;;7.64;55.72;100766.47;4976790;28;19914;-85
2021/03/10 03:47:05;;;;;;;;;;;;;;;7.13;57.33;100765.59;4966637;28;20370;-86
2021/03/10 03:49:50;;;;;;;;;;;;;;;7.52;55.80;100766.09;4960668;28;20285;-85
2021/03/10 03:52:38;;;;;;;;;;;;;;;7.67;55.74;100757.75;4962784;28;19914;-86
2021/03/10 03:55:23;;;;;;;;;;;;;;;7.60;55.01;100762.75;4968643;28;19914;-85
2021/03/10 03:58:08;;;;;;;;;;;;;;;7.71;54.99;100758.00;4961439;28;19914;-84
2021/03/10 04:00:52;;;;;;;;;;;;;;;7.77;54.39;100764.13;4957634;28;19914;-86
2021/03/10 04:03:37;;;;;;;;;;;;;;;7.66;55.30;100777.00;4961084;28;19918;-85
2021/03/10 04:06:21;;;;;;;;;;;;;;;7.61;54.24;100788.72;4979879;28;20404;-82
2021/03/10 04:09:07;;;;;;;;;;;;;;;7.79;54.76;100780.84;4961226;28;19926;-84
2021/03/10 04:12:02;;;;;;;;;;;;;;;7.75;55.28;100775.25;4964154;28;19939;-83
2021/03/10 04:14:46;;;;;;;;;;;;;;;8.01;54.59;100783.75;4980550;28;19918;-84
2021/03/10 04:17:31;;;;;;;;;;;;;;;7.99;53.70;100780.53;4967257;28;20381;-85
2021/03/10 04:20:17;;;;;;;;;;;;;;;7.73;54.95;100780.94;4962718;28;19914;-84
2021/03/10 04:23:01;;;;;;;;;;;;;;;7.77;55.03;100788.50;4960975;28;20369;-83
2021/03/10 04:25:46;;;;;;;;;;;;;;;7.85;55.87;100785.09;4961093;28;19915;-84
2021/03/10 04:28:30;;;;;;;;;;;;;;;7.70;55.86;100794.25;4961142;28;20373;-83
2021/03/10 04:31:15;;;;;;;;;;;;;;;7.62;56.34;100795.72;4956362;28;19919;-84
2021/03/10 04:34:00;;;;;;;;;;;;;;;7.64;56.18;100793.53;4966201;28;19914;-82
2021/03/10 04:36:44;;;;;;;;;;;;;;;7.60;56.55;100810.66;4980277;28;19914;-83
2021/03/10 04:39:29;;;;;;;;;;;;;;;7.59;55.80;100806.34;4980308;28;19914;-84
2021/03/10 04:42:13;;;;;;;;;;;;;;;6.90;57.46;100812.38;4960977;29;20022;-84
2021/03/10 04:45:16;;;;;;;;;;;;;;;7.36;56.66;100816.13;4961197;29;19918;-85
2021/03/10 04:48:01;;;;;;;;;;;;;;;7.81;56.92;100811.97;4960888;28;19914;-85
2021/03/10 04:50:46;;;;;;;;;;;;;;;7.89;56.27;100813.19;4957450;29;19918;-81
2021/03/10 04:53:30;;;;;;;;;;;;;;;8.09;56.57;100815.56;4963326;28;19914;-84
2021/03/10 04:56:15;;;;;;;;;;;;;;;7.99;56.22;100819.25;4964627;28;19914;-82
2021/03/10 04:58:59;;;;;;;;;;;;;;;7.84;55.51;100824.91;4958379;28;20377;-84
2021/03/10 05:01:44;;;;;;;;;;;;;;;7.66;55.75;100825.72;4977789;28;20473;-83
2021/03/10 05:04:28;;;;;;;;;;;;;;;7.38;55.99;100834.75;4979077;28;19914;-81
2021/03/10 05:07:12;;;;;;;;;;;;;;;7.23;56.69;100841.16;4963463;28;19918;-83
2021/03/10 05:09:57;;;;;;;;;;;;;;;7.35;56.42;100841.56;4963217;28;19926;-85
2021/03/10 05:12:41;;;;;;;;;;;;;;;7.11;56.36;100838.09;4964333;28;20376;-86
2021/03/10 05:15:26;;;;;;;;;;;;;;;6.84;57.25;100839.47;4968427;28;20389;-84
2021/03/10 05:18:10;;;;;;;;;;;;;;;6.83;56.92;100840.56;4949622;28;19914;-85
2021/03/10 05:20:55;;;;;;;;;;;;;;;6.84;57.17;100835.97;4960604;28;20381;-86
2021/03/10 05:23:42;;;;;;;;;;;;;;;6.65;57.06;100843.19;4964087;28;19914;-86
2021/03/10 05:26:26;;;;;;;;;;;;;;;6.64;57.53;100834.28;4964315;28;19914;-86
2021/03/10 05:33:04;;;;;;;;;;;;;;;7.17;58.83;100834.22;4963824;28;19915;-82
2021/03/10 05:35:49;;;;;;;;;;;;;;;6.92;55.68;100842.63;4949162;28;19914;-84
2021/03/10 05:38:33;;;;;;;;;;;;;;;7.11;57.71;100844.28;4970839;28;19914;-83
2021/03/10 05:41:18;;;;;;;;;;;;;;;6.97;56.89;100851.47;4962066;28;20399;-83
2021/03/10 05:44:04;;;;;;;;;;;;;;;6.83;56.05;100856.78;4963599;28;19914;-84
2021/03/10 05:46:49;;;;;;;;;;;;;;;6.54;56.58;100847.91;4963734;28;19914;-85
2021/03/10 05:49:33;;;;;;;;;;;;;;;6.56;57.33;100853.81;4979360;28;19918;-84
2021/03/10 05:52:18;;;;;;;;;;;;;;;6.93;57.79;100863.16;4982879;28;19914;-85
2021/03/10 05:55:05;;;;;;;;;;;;;;;6.97;57.65;100872.31;4980387;28;19913;-85
2021/03/10 05:57:49;;;;;;;;;;;;;;;6.98;57.91;100868.50;4963471;28;19914;-85
2021/03/10 06:00:34;;;;;;;;;;;;;;;6.78;57.45;100874.94;4979077;28;20381;-83
2021/03/10 06:03:18;;;;;;;;;;;;;;;7.05;57.79;100879.78;4968450;28;20384;-85
2021/03/10 06:06:04;;;;;;;;;;;;;;;7.00;56.19;100883.38;4967144;28;19915;-85
2021/03/10 06:08:49;;;;;;;;;;;;;;;6.67;57.68;100892.34;4970069;28;20400;-86
2021/03/10 06:11:34;;;;;;;;;;;;;;;6.67;58.18;100895.03;4976457;28;19918;-88
2021/03/10 06:14:19;;;;;;;;;;;;;;;6.83;57.18;100904.63;4982829;28;20365;-84
2021/03/10 06:17:05;;;;;;;;;;;;;;;6.98;57.03;100906.34;4982178;28;19914;-84
2021/03/10 06:24:10;;;;;;;;;;;;;;;6.81;57.31;100921.13;4982492;28;19910;-84
2021/03/10 06:26:54;;;;;;;;;;;;;;;6.68;57.90;100926.38;4982435;28;19914;-86
2021/03/10 06:29:39;;;;;;;;;;;;;;;6.49;57.63;100926.28;4964516;28;19926;-83
2021/03/10 06:32:25;;;;;;;;;;;;;;;6.49;57.83;100934.38;4956474;28;20284;-84
2021/03/10 06:35:10;;;;;;;;;;;;;;;6.49;57.97;100933.56;4975325;28;20373;-86
2021/03/10 06:38:14;;;;;;;;;;;;;;;6.57;57.91;100933.75;4973305;28;19914;-86
2021/03/10 06:40:59;;;;;;;;;;;;;;;6.65;58.18;100938.56;4966665;28;20296;-86
2021/03/10 06:43:44;;;;;;;;;;;;;;;6.83;57.53;100939.75;4981910;28;19922;-83
2021/03/10 06:46:28;;;;;;;;;;;;;;;6.89;57.31;100941.31;4982054;28;19914;-85
2021/03/10 06:49:13;;;;;;;;;;;;;;;7.03;57.04;100941.44;4981837;28;19918;-85
2021/03/10 06:52:09;;;;;;;;;;;;;;;7.00;56.82;100947.44;4975229;28;19917;-84
2021/03/10 06:54:54;;;;;;;;;;;;;;;7.02;56.73;100956.06;4982173;28;19914;-85
2021/03/10 06:57:43;;;;;;;;;;;;;;;7.07;56.90;100958.72;4981720;28;19914;-85
2021/03/10 07:00:29;;;;;;;;;;;;;;;7.07;57.30;100961.41;4979239;28;19914;-86
2021/03/10 07:03:14;;;;;;;;;;;;;;;7.19;57.36;100967.25;4981380;28;20293;-85
2021/03/10 07:06:01;;;;;;;;;;;;;;;7.35;57.53;100974.13;4980316;28;19914;-86
2021/03/10 07:08:48;;;;;;;;;;;;;;;7.37;58.39;100979.22;4981477;28;19913;-86
2021/03/10 07:11:32;;;;;;;;;;;;;;;7.36;59.01;100988.44;4976424;28;19918;-86
2021/03/10 07:14:18;;;;;;;;;;;;;;;7.56;58.80;100988.22;4982381;28;19918;-85
2021/03/10 07:17:04;;;;;;;;;;;;;;;7.69;59.08;100999.16;4982355;28;19914;-86
2021/03/10 07:19:49;;;;;;;;;;;;;;;7.71;59.49;100988.84;4966573;28;19914;-85
2021/03/10 07:22:36;;;;;;;;;;;;;;;7.87;58.84;100988.66;4981321;28;19914;-85
2021/03/10 07:25:24;;;;;;;;;;;;;;;8.00;58.75;100993.34;4981916;28;19914;-85
2021/03/10 07:28:11;;;;;;;;;;;;;;;8.15;58.80;100995.88;4981916;28;19913;-84
2021/03/10 07:30:57;;;;;;;;;;;;;;;8.20;58.89;100995.78;4977263;28;19917;-80
2021/03/10 07:33:48;;;;;;;;;;;;;;;8.32;58.67;101000.81;4977668;28;19926;-81
2021/03/10 07:36:43;;;;;;;;;;;;;;;8.28;58.26;101003.25;4956303;28;19914;-79
2021/03/10 07:39:31;;;;;;;;;;;;;;;8.25;58.47;101016.59;4960061;28;20131;-80
2021/03/10 07:42:17;;;;;;;;;;;;;;;8.47;58.18;101014.13;4957666;28;19914;-80
2021/03/10 07:45:02;;;;;;;;;;;;;;;8.54;57.26;101023.50;4955745;28;19914;-82
2021/03/10 07:47:52;;;;;;;;;;;;;;;8.69;56.21;101027.06;4959318;28;19918;-80
2021/03/10 07:50:42;;;;;;;;;;;;;;;8.81;55.74;101033.66;4957517;28;19918;-84
2021/03/10 07:53:53;;;;;;;;;;;;;;;8.81;55.44;101035.56;4960943;28;19918;-82
2021/03/10 07:56:37;;;;;;;;;;;;;;;8.64;54.90;101032.56;4958065;28;19918;-81
2021/03/10 07:59:22;;;;;;;;;;;;;;;8.77;54.40;101035.34;4946786;28;19922;-84
2021/03/10 08:02:08;;;;;;;;;;;;;;;8.51;55.50;101040.34;4961126;28;19915;-84
2021/03/10 08:05:01;;;;;;;;;;;;;;;8.38;54.93;101048.41;4971031;28;19914;-84
2021/03/10 08:07:49;;;;;;;;;;;;;;;8.52;53.67;101058.25;4980177;28;20377;-83
2021/03/10 08:10:35;;;;;;;;;;;;;;;9.43;48.19;101058.66;4972158;28;19919;-79
2021/03/10 08:13:21;;;;;;;;;;;;;;;9.38;49.77;101069.59;4972158;28;19933;-78
2021/03/10 08:16:08;;;;;;;;;;;;;;;10.58;50.69;101068.28;4966171;28;19914;-80
2021/03/10 08:18:53;;;;;;;;;;;;;;;9.69;45.70;101072.59;4960018;28;20285;-80
2021/03/10 08:21:46;;;;;;;;;;;;;;;10.32;43.30;101069.16;4970507;28;20308;-79
2021/03/10 08:24:34;;;;;;;;;;;;;;;9.99;43.31;101063.84;4956110;28;19914;-80
2021/03/10 08:27:28;;;;;;;;;;;;;;;10.25;45.40;101075.84;4980432;28;19914;-76
2021/03/10 08:30:14;;;;;;;;;;;;;;;9.97;41.88;101068.75;4981534;28;19922;-78
2021/03/10 08:33:06;;;;;;;;;;;;;;;9.38;41.91;101078.56;4978743;28;20292;-83
2021/03/10 08:35:52;;;;;;;;;;;;;;;9.28;43.01;101078.75;4981972;28;19914;-80
2021/03/10 08:38:37;;;;;;;;;;;;;;;9.34;42.76;101082.97;4980010;28;19914;-82
2021/03/10 08:41:21;;;;;;;;;;;;;;;9.23;43.73;101088.88;4978056;28;19914;-83
2021/03/10 08:44:05;;;;;;;;;;;;;;;9.42;43.44;101092.34;4981801;28;19914;-84
2021/03/10 08:46:51;;;;;;;;;;;;;;;9.41;42.00;101079.84;4983859;28;20365;-83
2021/03/10 08:49:37;;;;;;;;;;;;;;;9.49;42.65;101083.81;4969224;28;19914;-82
2021/03/10 08:52:22;;;;;;;;;;;;;;;9.60;41.97;101071.66;4982020;28;19918;-84
2021/03/10 08:55:09;;;;;;;;;;;;;;;9.56;41.85;101070.63;4965441;28;19914;-84
2021/03/10 08:57:55;;;;;;;;;;;;;;;9.85;41.87;101068.47;4963908;28;20381;-84
2021/03/10 10:43:15;;;;;;;;;;;;;;;11.93;38.28;101029.75;4935486;29;19938;-83
2021/03/10 10:46:05;;;;;;;;;;;;;;;12.08;38.21;101028.50;4928412;29;20317;-82
2021/03/10 10:48:58;;;;;;;;;;;;;;;12.35;37.33;101027.41;4942281;29;19919;-82
2021/03/10 10:51:49;;;;;;;;;;;;;;;12.28;37.89;101022.44;4935888;29;19919;-84
2021/03/10 10:54:40;;;;;;;;;;;;;;;12.19;38.11;101029.00;4923398;29;19915;-85
2021/03/10 10:57:27;;;;;;;;;;;;;;;12.31;37.27;101026.44;4943776;29;19915;-85
2021/03/10 11:00:17;;;;;;;;;;;;;;;12.62;36.85;101027.13;4927521;29;19914;-83
2021/03/10 11:03:03;;;;;;;;;;;;;;;12.60;36.77;101023.91;4927348;29;19914;-82
2021/03/10 11:05:58;;;;;;;;;;;;;;;12.93;36.44;101032.41;4939034;29;20406;-85
2021/03/10 11:08:53;;;;;;;;;;;;;;;12.82;35.57;101029.19;4928798;29;19915;-83
2021/03/10 11:11:37;;;;;;;;;;;;;;;13.30;36.78;101041.84;4937721;29;19923;-86
2021/03/10 11:14:22;;;;;;;;;;;;;;;13.12;34.64;101040.25;4928804;29;19915;-85
2021/03/10 11:17:15;;;;;;;;;;;;;;;13.34;35.20;101036.53;4942036;29;19914;-85
2021/03/10 11:20:08;;;;;;;;;;;;;;;13.44;35.03;101031.50;4927350;29;20410;-83
2021/03/10 11:22:52;;;;;;;;;;;;;;;13.36;34.98;101026.88;4941550;29;19914;-84
2021/03/10 11:25:38;;;;;;;;;;;;;;;13.51;34.31;101023.59;4928484;29;19919;-84
2021/03/10 11:28:25;;;;;;;;;;;;;;;14.03;34.03;101015.97;4939832;29;19914;-85
2021/03/10 11:31:13;;;;;;;;;;;;;;;14.19;33.95;101013.44;4924391;29;20374;-86
2021/03/10 11:33:58;;;;;;;;;;;;;;;15.43;32.27;101015.25;4936252;29;19918;-86
2021/03/10 11:36:50;;;;;;;;;;;;;;;17.07;29.07;101017.16;4942003;29;19915;-83
2021/03/10 11:39:36;;;;;;;;;;;;;;;20.18;24.74;101022.16;4928635;29;19915;-83
2021/03/10 11:42:21;;;;;;;;;;;;;;;21.63;21.98;101021.16;4924078;29;19914;-84
2021/03/10 11:45:07;;;;;;;;;;;;;;;21.41;21.96;101019.34;4939751;29;19915;-85
2021/03/10 11:47:55;;;;;;;;;;;;;;;21.58;22.55;101018.72;4937912;29;19915;-83
2021/03/10 11:50:40;;;;;;;;;;;;;;;21.96;21.53;101022.19;4936378;29;19915;-87
2021/03/10 11:53:27;;;;;;;;;;;;;;;21.34;21.90;101017.31;4939813;29;19915;-85
2021/03/10 11:56:12;;;;;;;;;;;;;;;20.08;23.81;101006.25;4938047;29;19918;-86
2021/03/10 11:58:57;;;;;;;;;;;;;;;19.56;24.97;101002.28;4936643;29;19914;-82
2021/03/10 12:01:53;;;;;;;;;;;;;;;21.37;22.15;100998.38;4917197;29;19915;-82
2021/03/10 12:04:43;;;;;;;;;;;;;;;20.69;23.12;100988.53;4927983;29;20557;-86
2021/03/10 12:07:28;;;;;;;;;;;;;;;22.67;21.54;100989.34;4927378;29;19919;-86
2021/03/10 12:10:14;;;;;;;;;;;;;;;22.02;21.23;100979.91;4940806;29;19914;-84
2021/03/10 12:12:59;;;;;;;;;;;;;;;23.41;19.59;100981.22;4942230;29;19919;-83
2021/03/10 12:15:44;;;;;;;;;;;;;;;24.46;18.69;100976.72;4941698;29;19915;-86
2021/03/10 12:18:28;;;;;;;;;;;;;;;22.94;20.04;100958.16;4941838;29;19918;-83
2021/03/10 12:21:13;;;;;;;;;;;;;;;21.41;22.18;100974.28;4923326;29;19914;-82
2021/03/10 12:23:59;;;;;;;;;;;;;;;21.68;21.90;100972.94;4934980;29;19915;-84
2021/03/10 12:26:46;;;;;;;;;;;;;;;24.48;18.92;100965.19;4939979;29;19915;-79
2021/03/10 12:29:31;;;;;;;;;;;;;;;22.57;20.71;100958.41;4930046;29;20392;-82
2021/03/10 12:32:15;;;;;;;;;;;;;;;21.88;21.37;100948.53;4927200;29;20383;-80
2021/03/10 12:34:59;;;;;;;;;;;;;;;22.03;20.84;100944.72;4914511;29;19915;-81
2021/03/10 12:37:44;;;;;;;;;;;;;;;22.87;20.27;100954.56;4918193;29;19915;-82
2021/03/10 12:40:30;;;;;;;;;;;;;;;24.41;17.81;100949.31;4938522;29;19915;-81
2021/03/10 12:43:15;;;;;;;;;;;;;;;23.28;19.35;100944.72;4931043;29;20282;-81
2021/03/10 12:46:02;;;;;;;;;;;;;;;22.67;19.88;100934.69;4929163;29;19919;-81
2021/03/10 12:48:47;;;;;;;;;;;;;;;21.38;21.35;100922.50;4929297;29;19915;-81
2021/03/10 12:51:32;;;;;;;;;;;;;;;22.25;20.74;100929.00;4928594;29;19919;-83
2021/03/10 12:54:18;;;;;;;;;;;;;;;21.06;22.35;100919.41;4913813;29;19915;-80
2021/03/10 12:57:02;;;;;;;;;;;;;;;22.14;21.42;100909.56;4925606;29;20386;-83
2021/03/10 12:59:48;;;;;;;;;;;;;;;22.38;21.33;100916.38;4930238;29;19915;-80
2021/03/10 13:02:33;;;;;;;;;;;;;;;23.79;19.50;100915.75;4918533;29;19915;-82
2021/03/10 13:05:18;;;;;;;;;;;;;;;24.43;18.58;100913.56;4911404;29;20294;-82
2021/03/10 13:08:03;;;;;;;;;;;;;;;22.24;21.84;100900.50;4937805;29;19915;-83
2021/03/10 13:10:48;;;;;;;;;;;;;;;22.95;20.40;100907.06;4928098;29;19914;-83
2021/03/10 13:13:34;;;;;;;;;;;;;;;24.83;18.43;100911.38;4923711;29;19915;-84
2021/03/10 13:16:18;;;;;;;;;;;;;;;24.02;19.18;100896.66;4928687;29;19915;-83
2021/03/10 13:19:03;;;;;;;;;;;;;;;24.70;18.31;100892.34;4945112;29;19918;-85
2021/03/10 13:21:48;;;;;;;;;;;;;;;21.99;21.02;100891.28;4939519;29;19914;-84
2021/03/10 13:24:32;;;;;;;;;;;;;;;22.67;21.04;100887.53;4945047;29;20373;-84
2021/03/10 13:27:16;;;;;;;;;;;;;;;23.94;19.38;100894.28;4941184;29;19914;-84
2021/03/10 13:30:01;;;;;;;;;;;;;;;24.03;19.04;100886.31;4944372;29;19915;-85
2021/03/10 13:32:46;;;;;;;;;;;;;;;23.72;18.63;100888.00;4928083;29;19927;-85
2021/03/10 13:35:30;;;;;;;;;;;;;;;23.16;19.73;100888.84;4926704;29;19911;-85
2021/03/10 13:38:15;;;;;;;;;;;;;;;24.25;18.07;100885.06;4926648;29;19915;-85
2021/03/10 13:41:00;;;;;;;;;;;;;;;22.60;18.88;100882.00;4928452;29;19915;-84
2021/03/10 13:43:45;;;;;;;;;;;;;;;23.10;19.36;100879.31;4933182;29;20290;-82
2021/03/10 13:46:30;;;;;;;;;;;;;;;21.75;20.67;100878.84;4938165;29;19915;-82
2021/03/10 13:49:14;;;;;;;;;;;;;;;22.29;20.68;100869.66;4929305;29;19915;-81
2021/03/10 13:51:59;;;;;;;;;;;;;;;23.96;18.75;100875.22;4931564;29;20301;-82
2021/03/10 13:54:45;;;;;;;;;;;;;;;24.68;17.86;100894.78;4938113;29;20306;-82
2021/03/10 13:57:30;;;;;;;;;;;;;;;22.51;20.40;100882.34;4932888;29;20373;-85
2021/03/10 14:00:15;;;;;;;;;;;;;;;24.10;18.45;100886.28;4927565;29;19923;-83
2021/03/10 14:03:00;;;;;;;;;;;;;;;24.71;17.35;100893.94;4927828;29;19919;-80
2021/03/10 14:05:46;;;;;;;;;;;;;;;23.82;18.26;100890.72;4929953;29;19914;-82
2021/03/10 14:08:32;;;;;;;;;;;;;;;23.01;19.41;100882.47;4926742;29;19915;-82
2021/03/10 14:11:17;;;;;;;;;;;;;;;22.36;21.10;100882.69;4929626;29;20297;-82
2021/03/10 14:14:01;;;;;;;;;;;;;;;21.94;21.17;100872.25;4929220;29;20385;-84
2021/03/10 14:16:48;;;;;;;;;;;;;;;22.78;18.36;100868.97;4933786;29;20385;-83
2021/03/10 14:19:33;;;;;;;;;;;;;;;25.05;16.17;100871.84;4930269;29;19915;-84
2021/03/10 14:22:18;;;;;;;;;;;;;;;21.96;20.28;100869.88;4929086;29;19915;-82
2021/03/10 14:25:03;;;;;;;;;;;;;;;22.44;19.95;100859.38;4924456;29;19915;-83
2021/03/10 14:27:48;;;;;;;;;;;;;;;21.90;20.64;100869.44;4937638;29;20285;-82
2021/03/10 14:30:33;;;;;;;;;;;;;;;21.61;20.74;100859.38;4934852;29;19914;-82
2021/03/10 14:33:19;;;;;;;;;;;;;;;21.59;21.78;100870.03;4935248;29;19919;-87
2021/03/10 14:36:04;;;;;;;;;;;;;;;21.32;22.44;100875.00;4931735;29;19914;-80
2021/03/10 14:38:48;;;;;;;;;;;;;;;20.78;21.90;100865.44;4930247;29;19914;-82
2021/03/10 14:41:34;;;;;;;;;;;;;;;21.95;20.41;100866.31;4924022;29;19915;-83
2021/03/10 14:44:18;;;;;;;;;;;;;;;20.81;21.72;100869.41;4934428;29;19915;-84
2021/03/10 14:47:03;;;;;;;;;;;;;;;20.92;21.17;100870.31;4932882;29;19914;-83
2021/03/10 14:49:48;;;;;;;;;;;;;;;21.70;19.29;100874.47;4930987;29;19914;-83
2021/03/10 14:52:33;;;;;;;;;;;;;;;21.29;21.28;100875.75;4932087;29;19919;-85
2021/03/10 14:55:18;;;;;;;;;;;;;;;22.61;20.04;100876.03;4928800;29;19915;-84
2021/03/10 14:58:03;;;;;;;;;;;;;;;22.04;20.32;100869.56;4935518;29;19915;-81
2021/03/10 15:00:48;;;;;;;;;;;;;;;20.76;22.18;100880.81;4914728;29;19914;-82
2021/03/10 15:03:33;;;;;;;;;;;;;;;19.62;23.20;100876.63;4937950;23;19922;-78
2021/03/10 15:06:18;;;;;;;;;;;;;;;21.22;20.59;100892.31;4950379;28;20286;-79
2021/03/10 15:09:02;;;;;;;;;;;;;;;20.20;21.39;100880.97;4947413;28;19915;-78
2021/03/10 15:11:47;;;;;;;;;;;;;;;20.20;20.97;100889.25;4946366;28;19918;-78
2021/03/10 15:14:31;;;;;;;;;;;;;;;21.00;19.28;100883.00;4951000;28;20385;-79
2021/03/10 15:17:16;;;;;;;;;;;;;;;19.67;21.92;100880.25;4949970;28;19914;-79
2021/03/10 15:20:02;;;;;;;;;;;;;;;20.07;21.57;100877.63;4947659;28;19914;-80
2021/03/10 15:22:46;;;;;;;;;;;;;;;18.38;24.19;100873.69;4947888;28;19918;-79
2021/03/10 15:25:31;;;;;;;;;;;;;;;17.86;24.26;100876.94;4948593;28;19914;-78
2021/03/10 15:28:15;;;;;;;;;;;;;;;17.53;24.95;100872.63;4946046;28;20310;-79
2021/03/10 15:31:00;;;;;;;;;;;;;;;18.31;23.95;100876.28;4942493;29;20305;-80
2021/03/10 15:33:44;;;;;;;;;;;;;;;17.74;24.58;100877.84;4943435;29;20318;-79
2021/03/10 15:36:32;;;;;;;;;;;;;;;17.98;24.75;100879.53;4946835;28;20374;-80
2021/03/10 15:39:18;;;;;;;;;;;;;;;16.52;26.55;100877.13;4952247;28;19914;-80
2021/03/10 15:42:03;;;;;;;;;;;;;;;16.01;27.61;100878.81;4953986;28;19915;-79
2021/03/10 15:44:48;;;;;;;;;;;;;;;15.19;29.09;100876.25;4953326;28;20301;-79
2021/03/10 15:47:33;;;;;;;;;;;;;;;14.78;30.44;100877.25;4952412;28;19915;-79
2021/03/10 15:50:18;;;;;;;;;;;;;;;14.93;30.17;100870.34;4956988;28;19914;-79
2021/03/10 15:53:03;;;;;;;;;;;;;;;14.55;30.93;100873.31;4949826;28;19918;-79
2021/03/10 15:55:48;;;;;;;;;;;;;;;14.35;30.58;100880.41;4951520;28;19915;-79
2021/03/10 15:58:32;;;;;;;;;;;;;;;14.11;30.65;100881.13;4955343;28;19915;-79
2021/03/10 16:01:18;;;;;;;;;;;;;;;13.95;31.38;100880.13;4954686;28;19915;-79
2021/03/10 16:04:03;;;;;;;;;;;;;;;13.77;31.57;100883.28;4951790;28;19914;-79
2021/03/10 16:06:48;;;;;;;;;;;;;;;13.70;32.78;100883.84;4954668;28;19915;-79
2021/03/10 16:09:32;;;;;;;;;;;;;;;13.62;33.36;100881.94;4954561;28;19915;-78
2021/03/10 16:12:16;;;;;;;;;;;;;;;13.65;33.19;100884.03;4953287;28;19918;-80
2021/03/10 16:15:01;;;;;;;;;;;;;;;13.67;33.70;100885.28;4958177;28;19915;-79